Time;durP1;ratioP1;P1;durP2;ratioP2;P2;SDS_P1;SDS_P2;PMS_P1;PMS_P2;Temp;Humidity;BMP_temperature;BMP_pressure;BME280_temperature;BME280_humidity;BME280_pressure;Samples;Min_cycle;Max_cycle;Signal;HPM_P1;HPM_P2
2022/09/14 00:00:53;;;;;;;0.20;0.20;;;12.90;99.90;;;;;;4998111;28;20439;-90
2022/09/14 00:03:19;;;;;;;0.37;0.20;;;12.90;99.90;;;;;;4981272;28;20049;-91
2022/09/14 00:05:45;;;;;;;0.13;0.10;;;12.90;99.90;;;;;;4996483;28;20077;-91
2022/09/14 00:08:11;;;;;;;1.60;0.25;;;12.90;99.90;;;;;;4948645;28;20054;-91
2022/09/14 00:10:40;;;;;;;0.22;0.20;;;12.90;99.90;;;;;;4996361;28;20103;-91
2022/09/14 00:13:06;;;;;;;0.10;0.10;;;12.80;99.90;;;;;;4997000;28;20045;-91
2022/09/14 00:15:35;;;;;;;0.20;0.20;;;12.80;99.90;;;;;;4979597;28;20046;-91
2022/09/14 00:18:01;;;;;;;0.22;0.22;;;12.80;99.90;;;;;;4996693;28;20050;-92
2022/09/14 00:20:26;;;;;;;0.30;0.30;;;12.80;99.90;;;;;;4964116;28;20050;-90
2022/09/14 00:22:52;;;;;;;0.20;0.20;;;12.80;99.90;;;;;;4980450;28;20053;-90
2022/09/14 00:25:18;;;;;;;0.37;0.27;;;12.80;99.90;;;;;;4964246;28;20054;-91
2022/09/14 00:27:43;;;;;;;0.63;0.50;;;12.70;99.90;;;;;;4995996;28;20127;-91
2022/09/14 00:30:09;;;;;;;0.17;0.10;;;12.70;99.90;;;;;;4996586;28;20050;-91
2022/09/14 00:32:35;;;;;;;0.55;0.30;;;12.70;99.90;;;;;;4989878;28;20041;-91
2022/09/14 00:35:01;;;;;;;0.20;0.20;;;12.60;99.90;;;;;;4969061;28;20053;-92
2022/09/14 00:37:27;;;;;;;0.85;0.30;;;12.70;99.90;;;;;;4983131;28;20097;-91
2022/09/14 00:39:53;;;;;;;0.40;0.10;;;12.70;99.90;;;;;;4972872;28;20050;-91
2022/09/14 00:42:19;;;;;;;0.45;0.28;;;12.70;99.90;;;;;;4996238;28;20289;-91
2022/09/14 00:44:45;;;;;;;0.35;0.20;;;12.70;99.90;;;;;;4961620;28;20072;-91
2022/09/14 00:47:12;;;;;;;0.20;0.20;;;12.70;99.90;;;;;;4996220;28;20508;-91
2022/09/14 00:49:40;;;;;;;0.30;0.30;;;12.70;99.90;;;;;;4979629;28;20045;-91
2022/09/14 00:52:14;;;;;;;0.43;0.03;;;12.70;99.90;;;;;;4963593;28;20123;-91
2022/09/14 00:54:45;;;;;;;0.20;0.20;;;12.80;99.90;;;;;;4995631;28;20081;-92
2022/09/14 00:57:11;;;;;;;0.22;0.22;;;12.80;99.90;;;;;;4980129;28;20049;-90
2022/09/14 00:59:39;;;;;;;0.13;0.10;;;12.90;99.90;;;;;;4979616;28;20053;-91
2022/09/14 01:02:08;;;;;;;0.28;0.28;;;12.80;99.90;;;;;;4985986;28;20488;-91
2022/09/14 01:04:34;;;;;;;0.65;0.47;;;12.90;99.90;;;;;;5003552;28;20081;-91
2022/09/14 01:07:16;;;;;;;0.10;0.00;;;12.80;99.90;;;;;;4979698;28;20443;-91
2022/09/14 01:10:09;;;;;;;0.30;0.20;;;12.80;99.90;;;;;;4995180;28;20073;-91
2022/09/14 01:12:38;;;;;;;0.20;0.20;;;12.80;99.90;;;;;;4995487;28;20041;-91
2022/09/14 01:15:22;;;;;;;0.50;0.30;;;12.80;99.90;;;;;;4995899;28;20092;-91
2022/09/14 01:18:01;;;;;;;0.00;0.00;;;12.80;99.90;;;;;;4983565;28;20381;-91
2022/09/14 01:20:38;;;;;;;0.28;0.28;;;12.80;99.90;;;;;;5002088;28;20167;-91
2022/09/14 01:23:32;;;;;;;0.15;0.15;;;12.80;99.90;;;;;;5002563;28;20406;-91
2022/09/14 01:26:19;;;;;;;0.13;0.13;;;12.80;99.90;;;;;;5002027;28;20053;-91
2022/09/14 01:29:02;;;;;;;0.20;0.20;;;12.80;99.90;;;;;;5001858;28;20480;-91
2022/09/14 01:31:33;;;;;;;0.20;0.15;;;12.80;99.90;;;;;;5002105;28;20089;-91
2022/09/14 01:34:15;;;;;;;1.65;0.10;;;12.80;99.90;;;;;;4985431;28;20045;-91
2022/09/14 01:36:46;;;;;;;0.10;0.10;;;12.80;99.90;;;;;;4985604;28;20119;-90
2022/09/14 01:39:14;;;;;;;0.30;0.30;;;12.70;99.90;;;;;;5001928;28;20485;-91
2022/09/14 01:41:41;;;;;;;0.22;0.20;;;12.70;99.90;;;;;;5001527;28;20077;-90
2022/09/14 01:44:19;;;;;;;0.28;0.25;;;12.70;99.90;;;;;;4969563;28;20093;-91
2022/09/14 01:46:55;;;;;;;0.10;0.10;;;12.70;99.90;;;;;;5001356;28;20042;-91
2022/09/14 01:49:31;;;;;;;0.30;0.30;;;12.70;99.90;;;;;;5001955;28;20088;-90
2022/09/14 01:52:17;;;;;;;0.32;0.32;;;12.70;99.90;;;;;;4985097;28;20606;-91
2022/09/14 01:54:48;;;;;;;0.10;0.10;;;12.70;99.90;;;;;;4985222;28;20042;-91
2022/09/14 01:57:38;;;;;;;0.30;0.20;;;12.70;99.90;;;;;;4985993;28;20432;-91
2022/09/14 02:00:09;;;;;;;0.20;0.20;;;12.60;99.90;;;;;;5001859;28;20046;-91
2022/09/14 02:02:43;;;;;;;0.20;0.20;;;12.50;99.90;;;;;;5001597;28;20468;-91
2022/09/14 02:05:32;;;;;;;0.28;0.13;;;12.50;99.90;;;;;;4985682;28;20053;-91
2022/09/14 02:07:58;;;;;;;0.15;0.10;;;12.60;99.90;;;;;;4965195;28;20148;-90
2022/09/14 02:10:25;;;;;;;1.55;0.30;;;12.50;99.90;;;;;;5001702;28;20100;-91
2022/09/14 02:12:52;;;;;;;0.10;0.10;;;12.50;99.90;;;;;;5001331;28;20042;-91
2022/09/14 02:15:19;;;;;;;0.47;0.10;;;12.40;99.90;;;;;;4985410;28;20068;-91
2022/09/14 02:17:45;;;;;;;0.10;0.08;;;12.40;99.90;;;;;;5001122;28;20111;-90
2022/09/14 02:20:35;;;;;;;0.17;0.13;;;12.40;99.90;;;;;;4985574;28;20069;-91
2022/09/14 02:23:02;;;;;;;0.00;0.00;;;12.40;99.90;;;;;;4964480;28;20447;-91
2022/09/14 02:25:28;;;;;;;0.25;0.22;;;12.40;99.90;;;;;;5001950;28;20136;-91
2022/09/14 02:27:54;;;;;;;0.15;0.10;;;12.40;99.90;;;;;;5000492;28;20089;-91
2022/09/14 02:30:20;;;;;;;0.40;0.40;;;12.40;99.90;;;;;;4998202;28;20085;-91
2022/09/14 02:32:48;;;;;;;0.20;0.20;;;12.40;99.90;;;;;;4998138;28;20705;-91
2022/09/14 02:36:08;;;;;;;0.10;0.10;;;12.30;99.90;;;;;;4998879;28;20046;-91
2022/09/14 02:38:45;;;;;;;0.40;0.40;;;12.30;99.90;;;;;;4920231;29;20486;-91
2022/09/14 02:41:36;;;;;;;0.38;0.22;;;12.30;99.90;;;;;;4988356;28;20064;-91
2022/09/14 02:44:16;;;;;;;0.25;0.10;;;12.40;99.90;;;;;;4997506;28;20097;-91
2022/09/14 02:47:14;;;;;;;0.50;0.43;;;12.40;99.90;;;;;;4998063;28;20081;-91
2022/09/14 02:49:54;;;;;;;0.40;0.20;;;12.50;99.90;;;;;;4998778;28;20427;-91
2022/09/14 02:52:49;;;;;;;0.22;0.17;;;12.50;99.90;;;;;;4998202;28;20042;-90
2022/09/14 02:55:19;;;;;;;0.30;0.20;;;12.60;99.90;;;;;;4973414;28;20523;-91
2022/09/14 02:58:13;;;;;;;0.00;0.00;;;12.60;99.90;;;;;;4982151;28;20103;-91
2022/09/14 03:00:47;;;;;;;0.32;0.30;;;12.70;99.90;;;;;;4982113;28;20050;-91
2022/09/14 03:03:15;;;;;;;0.20;0.20;;;12.70;99.90;;;;;;4985327;28;20062;-92
2022/09/14 03:05:41;;;;;;;0.25;0.20;;;12.70;99.90;;;;;;4995112;28;20137;-92
2022/09/14 03:08:09;;;;;;;0.17;0.17;;;12.70;99.90;;;;;;5003448;28;20060;-91
2022/09/14 03:10:35;;;;;;;0.05;0.05;;;12.70;99.90;;;;;;4989326;28;20050;-91
2022/09/14 03:13:01;;;;;;;0.13;0.13;;;12.80;99.90;;;;;;5002022;28;20038;-91
2022/09/14 03:15:28;;;;;;;0.00;0.00;;;12.80;99.90;;;;;;4997855;28;20046;-91
2022/09/14 03:17:53;;;;;;;0.20;0.20;;;12.80;99.90;;;;;;4981375;28;20054;-91
2022/09/14 03:20:24;;;;;;;0.10;0.10;;;12.90;99.90;;;;;;4997678;28;20049;-90
2022/09/14 03:22:51;;;;;;;0.00;0.00;;;12.90;99.90;;;;;;4997612;28;20053;-91
2022/09/14 03:25:21;;;;;;;0.47;0.10;;;13.00;99.90;;;;;;4998163;28;20081;-91
2022/09/14 03:27:52;;;;;;;0.20;0.17;;;13.00;99.90;;;;;;4997878;28;20085;-91
2022/09/14 03:30:19;;;;;;;0.40;0.20;;;13.10;99.90;;;;;;4981704;28;20050;-90
2022/09/14 03:32:45;;;;;;;0.10;0.10;;;13.10;99.90;;;;;;4997021;28;20083;-91
2022/09/14 03:35:11;;;;;;;0.47;0.20;;;13.10;99.90;;;;;;4988477;28;20078;-91
2022/09/14 03:37:38;;;;;;;0.20;0.20;;;13.20;99.90;;;;;;4984078;28;20046;-91
2022/09/14 03:40:05;;;;;;;0.10;0.10;;;13.20;99.90;;;;;;4996988;28;20049;-91
2022/09/14 03:42:31;;;;;;;0.00;0.00;;;13.20;99.90;;;;;;4981207;28;20046;-91
2022/09/14 03:44:57;;;;;;;0.17;0.10;;;13.20;99.90;;;;;;4980148;28;20459;-91
2022/09/14 03:47:23;;;;;;;0.10;0.10;;;13.10;99.90;;;;;;4981144;28;20065;-91
2022/09/14 03:49:49;;;;;;;0.40;0.25;;;13.20;99.90;;;;;;4980992;28;20049;-90
2022/09/14 03:52:15;;;;;;;0.20;0.10;;;13.10;99.90;;;;;;4980207;28;20042;-91
2022/09/14 03:54:41;;;;;;;0.75;0.20;;;13.20;99.90;;;;;;4980929;28;20050;-92
2022/09/14 03:57:07;;;;;;;0.90;0.33;;;13.10;99.90;;;;;;4980095;28;20501;-91
2022/09/14 03:59:33;;;;;;;0.10;0.10;;;13.10;99.90;;;;;;4996865;28;20285;-90
2022/09/14 04:01:59;;;;;;;0.65;0.28;;;13.10;99.90;;;;;;4980266;28;20053;-92
2022/09/14 04:04:26;;;;;;;0.28;0.28;;;13.10;99.90;;;;;;4980671;28;20049;-90
2022/09/14 04:06:51;;;;;;;0.40;0.20;;;13.10;99.90;;;;;;4964506;28;20551;-91
2022/09/14 04:09:18;;;;;;;0.10;0.10;;;13.10;99.90;;;;;;4980324;28;20141;-91
2022/09/14 04:11:44;;;;;;;0.17;0.17;;;13.10;99.90;;;;;;4997017;28;20049;-92
2022/09/14 04:14:11;;;;;;;0.10;0.10;;;13.10;99.90;;;;;;4997004;28;20103;-92
2022/09/14 04:16:38;;;;;;;0.10;0.10;;;13.10;99.90;;;;;;4997313;28;20136;-91
2022/09/14 04:19:04;;;;;;;0.20;0.20;;;13.10;99.90;;;;;;4980266;28;20042;-91
2022/09/14 04:21:30;;;;;;;0.00;0.00;;;13.10;99.90;;;;;;4980353;28;20053;-91
2022/09/14 04:23:57;;;;;;;0.30;0.30;;;13.10;99.90;;;;;;4980320;28;20161;-91
2022/09/14 04:26:27;;;;;;;0.73;0.28;;;13.10;99.90;;;;;;4996662;28;20049;-91
2022/09/14 04:28:54;;;;;;;0.20;0.15;;;13.20;99.90;;;;;;4980586;28;20392;-91
2022/09/14 04:31:20;;;;;;;0.20;0.05;;;13.10;99.90;;;;;;4995685;28;20038;-91
2022/09/14 04:33:48;;;;;;;0.23;0.20;;;13.10;99.90;;;;;;4996306;28;20038;-91
2022/09/14 04:36:20;;;;;;;0.03;0.03;;;13.20;99.90;;;;;;4979972;28;20085;-91
2022/09/14 04:38:46;;;;;;;0.13;0.10;;;13.20;99.90;;;;;;4979983;28;20054;-91
2022/09/14 04:41:19;;;;;;;0.75;0.20;;;13.20;99.90;;;;;;4995597;28;20096;-91
2022/09/14 04:43:48;;;;;;;0.35;0.13;;;13.10;99.90;;;;;;4996026;28;20403;-91
2022/09/14 04:46:17;;;;;;;0.28;0.28;;;13.10;99.90;;;;;;5013018;28;20049;-91
2022/09/14 04:48:43;;;;;;;0.28;0.15;;;13.20;99.90;;;;;;4996217;28;20038;-91
2022/09/14 04:51:16;;;;;;;0.28;0.20;;;13.20;99.90;;;;;;4979005;28;20042;-91
2022/09/14 04:53:43;;;;;;;0.30;0.20;;;13.20;99.90;;;;;;4995701;28;20071;-91
2022/09/14 04:56:10;;;;;;;0.40;0.20;;;13.20;99.90;;;;;;4979565;28;20088;-92
2022/09/14 04:58:40;;;;;;;0.17;0.17;;;13.20;99.90;;;;;;5013405;28;20045;-91
2022/09/14 05:01:08;;;;;;;0.22;0.10;;;13.20;99.90;;;;;;5012796;28;20037;-92
2022/09/14 05:03:35;;;;;;;0.30;0.30;;;13.20;99.90;;;;;;4979449;28;20480;-92
2022/09/14 05:06:02;;;;;;;0.10;0.10;;;13.20;99.90;;;;;;4995787;28;20067;-91
2022/09/14 05:08:28;;;;;;;0.28;0.28;;;13.20;99.90;;;;;;4995571;28;20551;-92
2022/09/14 05:10:55;;;;;;;0.82;0.38;;;13.20;99.90;;;;;;4979967;28;20085;-90
2022/09/14 05:13:22;;;;;;;0.30;0.20;;;13.20;99.90;;;;;;5012857;28;20088;-91
2022/09/14 05:15:49;;;;;;;0.05;0.05;;;13.20;99.90;;;;;;4979832;28;20418;-91
2022/09/14 05:18:15;;;;;;;0.85;0.20;;;13.20;99.90;;;;;;4995631;28;20050;-91
2022/09/14 05:20:40;;;;;;;0.03;0.03;;;13.30;99.90;;;;;;4979634;28;20068;-91
2022/09/14 05:23:06;;;;;;;0.07;0.07;;;13.30;99.90;;;;;;4995331;28;20045;-90
2022/09/14 05:25:32;;;;;;;0.00;0.00;;;13.30;99.90;;;;;;4963192;28;20107;-91
2022/09/14 05:27:57;;;;;;;0.50;0.13;;;13.20;99.90;;;;;;4995592;28;20054;-91
2022/09/14 05:30:23;;;;;;;0.30;0.27;;;13.30;99.90;;;;;;4995409;28;20514;-91
2022/09/14 05:32:49;;;;;;;0.33;0.20;;;13.30;99.90;;;;;;4995471;28;20375;-92
2022/09/14 05:35:15;;;;;;;0.43;0.10;;;13.30;99.90;;;;;;4963246;28;20038;-91
2022/09/14 05:37:40;;;;;;;0.10;0.10;;;13.30;99.90;;;;;;5006022;28;20050;-91
2022/09/14 05:40:07;;;;;;;0.13;0.13;;;13.30;99.90;;;;;;5016866;28;20718;-91
2022/09/14 05:42:33;;;;;;;1.25;0.40;;;13.20;99.90;;;;;;4983524;28;20046;-92
2022/09/14 05:44:59;;;;;;;0.43;0.28;;;13.30;99.90;;;;;;4968940;28;20089;-91
2022/09/14 05:47:27;;;;;;;0.13;0.13;;;13.30;99.90;;;;;;4995452;28;20049;-92
2022/09/14 05:49:53;;;;;;;0.15;0.08;;;13.30;99.90;;;;;;4979393;28;20499;-91
2022/09/14 05:52:19;;;;;;;0.40;0.20;;;13.30;99.90;;;;;;4995064;28;20129;-91
2022/09/14 05:54:45;;;;;;;0.17;0.15;;;13.30;99.90;;;;;;4979574;28;20046;-91
2022/09/14 05:57:10;;;;;;;0.20;0.10;;;13.40;99.90;;;;;;4995113;28;20057;-89
2022/09/14 05:59:36;;;;;;;0.10;0.10;;;13.40;99.90;;;;;;4979236;28;20076;-90
2022/09/14 06:02:02;;;;;;;0.33;0.33;;;13.40;99.90;;;;;;4963285;28;20651;-91
2022/09/14 06:04:28;;;;;;;0.77;0.30;;;13.40;99.90;;;;;;4998159;28;20050;-90
2022/09/14 06:06:54;;;;;;;0.53;0.27;;;13.50;99.90;;;;;;4985195;28;20053;-90
2022/09/14 06:09:19;;;;;;;0.13;0.13;;;13.50;99.90;;;;;;5004200;28;20481;-90
2022/09/14 06:11:45;;;;;;;0.33;0.23;;;13.50;99.90;;;;;;4982360;28;20041;-91
2022/09/14 06:14:11;;;;;;;0.10;0.10;;;13.60;99.90;;;;;;4966713;28;20050;-90
2022/09/14 06:16:36;;;;;;;0.43;0.33;;;13.60;99.90;;;;;;4998385;28;20046;-90
2022/09/14 06:19:03;;;;;;;0.30;0.20;;;13.60;99.90;;;;;;4998867;28;20042;-91
2022/09/14 06:21:31;;;;;;;0.25;0.25;;;13.60;99.90;;;;;;4998283;28;20046;-90
2022/09/14 06:23:56;;;;;;;0.25;0.25;;;13.70;99.90;;;;;;4982691;28;20053;-91
2022/09/14 06:26:22;;;;;;;0.03;0.03;;;13.60;99.90;;;;;;4982015;28;20123;-90
2022/09/14 06:28:48;;;;;;;0.40;0.17;;;13.70;99.90;;;;;;4982410;28;20056;-91
2022/09/14 06:31:16;;;;;;;0.50;0.17;;;13.70;99.90;;;;;;4998403;28;20307;-89
2022/09/14 06:33:46;;;;;;;0.50;0.35;;;13.80;99.90;;;;;;4982275;28;20136;-89
2022/09/14 06:36:14;;;;;;;0.47;0.20;;;13.80;99.90;;;;;;4998521;28;20041;-89
2022/09/14 06:38:41;;;;;;;0.22;0.22;;;13.90;99.90;;;;;;4998004;28;20042;-89
2022/09/14 06:41:09;;;;;;;0.30;0.30;;;13.90;99.90;;;;;;4982177;28;20088;-89
2022/09/14 06:43:37;;;;;;;0.30;0.28;;;14.00;99.90;;;;;;4981513;28;20435;-89
2022/09/14 06:46:19;;;;;;;0.45;0.28;;;14.00;99.90;;;;;;4982330;28;20049;-89
2022/09/14 06:48:46;;;;;;;0.43;0.15;;;14.10;99.90;;;;;;4982065;28;20046;-89
2022/09/14 06:51:18;;;;;;;0.73;0.47;;;14.10;99.90;;;;;;4981781;28;20128;-89
2022/09/14 06:53:46;;;;;;;0.75;0.20;;;14.10;99.90;;;;;;4998199;28;20045;-89
2022/09/14 06:56:12;;;;;;;0.10;0.10;;;14.20;99.90;;;;;;4966050;28;20046;-88
2022/09/14 06:58:38;;;;;;;0.20;0.20;;;14.20;99.90;;;;;;4997680;28;20104;-89
2022/09/14 07:01:05;;;;;;;0.23;0.20;;;14.20;99.90;;;;;;4998348;28;20511;-88
2022/09/14 07:03:33;;;;;;;0.30;0.30;;;14.20;99.90;;;;;;4981429;28;20049;-89
2022/09/14 07:06:09;;;;;;;0.25;0.15;;;14.30;99.90;;;;;;4997992;28;20056;-89
2022/09/14 07:08:36;;;;;;;0.57;0.35;;;14.30;99.90;;;;;;4981266;28;20060;-89
2022/09/14 07:11:04;;;;;;;0.20;0.20;;;14.40;99.90;;;;;;4997607;28;20092;-88
2022/09/14 07:13:31;;;;;;;0.00;0.00;;;14.40;99.90;;;;;;4997170;28;20500;-89
2022/09/14 07:15:56;;;;;;;0.20;0.10;;;14.40;99.90;;;;;;4997146;28;20064;-89
2022/09/14 07:18:27;;;;;;;0.10;0.10;;;14.50;99.90;;;;;;4965279;28;20477;-89
2022/09/14 07:20:54;;;;;;;0.32;0.22;;;14.60;99.90;;;;;;4997986;28;20057;-88
2022/09/14 07:23:20;;;;;;;0.52;0.20;;;14.60;99.90;;;;;;4981413;28;20072;-88
2022/09/14 07:25:46;;;;;;;0.17;0.17;;;14.70;99.90;;;;;;4980915;28;20085;-89
2022/09/14 07:28:11;;;;;;;0.20;0.20;;;14.70;99.90;;;;;;4981457;28;20081;-88
2022/09/14 07:30:40;;;;;;;0.43;0.27;;;14.80;99.90;;;;;;4980837;28;20674;-88
2022/09/14 07:33:06;;;;;;;0.25;0.15;;;14.90;99.90;;;;;;4997109;28;20054;-89
2022/09/14 07:35:32;;;;;;;0.20;0.20;;;14.90;99.90;;;;;;4964987;28;20492;-88
2022/09/14 07:37:58;;;;;;;0.00;0.00;;;15.00;99.90;;;;;;4981395;28;20057;-89
2022/09/14 07:40:24;;;;;;;0.90;0.17;;;15.10;99.90;;;;;;4997152;28;20049;-91
2022/09/14 07:42:51;;;;;;;0.28;0.15;;;15.20;99.90;;;;;;4980845;28;20042;-89
2022/09/14 07:45:16;;;;;;;0.17;0.10;;;15.30;99.90;;;;;;4997191;28;20046;-89
2022/09/14 07:47:42;;;;;;;0.63;0.20;;;15.40;99.90;;;;;;4980659;28;20080;-88
2022/09/14 07:50:08;;;;;;;0.20;0.20;;;15.40;99.90;;;;;;4997222;28;20485;-89
2022/09/14 07:52:34;;;;;;;0.05;0.05;;;15.50;99.90;;;;;;4980301;28;20046;-89
2022/09/14 07:54:59;;;;;;;0.57;0.20;;;15.50;99.90;;;;;;4980892;28;20046;-89
2022/09/14 07:57:25;;;;;;;0.20;0.10;;;15.50;99.90;;;;;;4980919;28;20064;-89
2022/09/14 07:59:52;;;;;;;0.52;0.45;;;15.60;99.90;;;;;;4996862;28;20042;-89
2022/09/14 08:02:18;;;;;;;0.55;0.20;;;15.60;99.90;;;;;;4980559;28;20045;-88
2022/09/14 08:04:43;;;;;;;0.30;0.20;;;15.70;99.90;;;;;;4996486;28;20112;-89
2022/09/14 08:07:09;;;;;;;0.00;0.00;;;15.70;99.90;;;;;;4964573;28;20480;-89
2022/09/14 08:09:36;;;;;;;0.40;0.40;;;15.70;99.90;;;;;;4998314;28;20289;-89
2022/09/14 08:12:03;;;;;;;0.10;0.00;;;15.80;99.90;;;;;;4998896;28;20396;-89
2022/09/14 08:14:28;;;;;;;0.20;0.10;;;15.90;99.90;;;;;;4996269;28;20112;-90
2022/09/14 08:16:54;;;;;;;0.00;0.00;;;15.90;99.90;;;;;;4966867;28;20053;-89
2022/09/14 08:19:20;;;;;;;0.00;0.00;;;15.90;99.90;;;;;;4980513;28;20300;-89
2022/09/14 08:21:46;;;;;;;0.30;0.30;;;16.00;99.90;;;;;;4963890;28;20043;-89
2022/09/14 08:24:17;;;;;;;0.00;0.00;;;16.00;99.90;;;;;;4996498;28;20058;-89
2022/09/14 08:26:43;;;;;;;0.47;0.10;;;16.10;99.90;;;;;;4995068;28;20053;-89
2022/09/14 08:29:08;;;;;;;0.10;0.10;;;16.20;99.90;;;;;;4980469;28;20497;-89
2022/09/14 08:31:38;;;;;;;0.00;0.00;;;16.20;99.90;;;;;;4963765;28;20042;-89
2022/09/14 08:34:05;;;;;;;0.10;0.10;;;16.30;99.90;;;;;;5013627;28;20280;-89
2022/09/14 08:36:39;;;;;;;0.22;0.05;;;16.30;99.90;;;;;;4996030;28;20056;-91
2022/09/14 08:39:08;;;;;;;0.13;0.10;;;16.50;99.90;;;;;;4996352;28;20042;-89
2022/09/14 08:41:43;;;;;;;0.10;0.00;;;16.50;99.90;;;;;;4998883;28;20061;-89
2022/09/14 08:44:21;;;;;;;1.58;0.10;;;16.60;99.90;;;;;;4979545;28;20089;-89
2022/09/14 08:47:02;;;;;;;0.00;0.00;;;16.60;99.90;;;;;;4995637;28;20500;-89
2022/09/14 08:49:50;;;;;;;0.00;0.00;;;16.70;99.90;;;;;;4996226;28;20414;-89
2022/09/14 08:52:27;;;;;;;0.00;0.00;;;16.80;99.90;;;;;;4995848;28;20050;-89
2022/09/14 08:54:55;;;;;;;0.00;0.00;;;16.90;99.90;;;;;;4995722;28;20137;-89
2022/09/14 08:57:47;;;;;;;0.00;0.00;;;17.00;99.90;;;;;;4995922;28;20084;-89
2022/09/14 09:00:20;;;;;;;0.00;0.00;;;17.10;99.90;;;;;;4996133;28;20054;-89
2022/09/14 09:03:07;;;;;;;0.10;0.00;;;17.10;99.90;;;;;;4979333;28;20092;-89
2022/09/14 09:05:52;;;;;;;0.00;0.00;;;17.20;99.90;;;;;;4995757;28;20488;-89
2022/09/14 09:08:26;;;;;;;0.10;0.10;;;17.20;99.90;;;;;;4996052;28;20084;-89
2022/09/14 09:10:53;;;;;;;0.10;0.00;;;17.30;99.90;;;;;;4995358;28;20128;-89
2022/09/14 09:13:27;;;;;;;0.08;0.00;;;17.30;99.90;;;;;;4995682;28;20061;-89
2022/09/14 09:15:58;;;;;;;0.00;0.00;;;17.40;99.90;;;;;;4978850;28;20488;-89
2022/09/14 09:18:46;;;;;;;0.20;0.10;;;17.40;99.90;;;;;;4979635;28;20132;-89
2022/09/14 09:21:38;;;;;;;0.00;0.00;;;17.40;99.90;;;;;;4979774;28;20496;-90
2022/09/14 09:24:24;;;;;;;0.00;0.00;;;17.40;99.90;;;;;;4976520;28;20049;-90
2022/09/14 09:26:50;;;;;;;0.00;0.00;;;17.40;99.90;;;;;;4978817;28;20488;-89
2022/09/14 09:29:17;;;;;;;0.00;0.00;;;17.40;99.90;;;;;;4979522;28;20053;-89
2022/09/14 09:31:49;;;;;;;0.00;0.00;;;17.40;99.90;;;;;;4978796;28;20046;-89
2022/09/14 09:34:19;;;;;;;1.35;0.10;;;17.50;99.90;;;;;;4995356;28;20536;-89
2022/09/14 09:36:48;;;;;;;0.00;0.00;;;17.60;99.90;;;;;;4995124;28;20050;-90
2022/09/14 09:39:14;;;;;;;0.52;0.52;;;17.70;99.90;;;;;;4998221;28;20060;-89
2022/09/14 09:41:50;;;;;;;0.00;0.00;;;17.80;99.90;;;;;;4967013;28;20373;-91
2022/09/14 09:44:15;;;;;;;0.32;0.10;;;18.00;99.90;;;;;;4998957;28;20547;-89
2022/09/14 09:46:49;;;;;;;0.10;0.10;;;18.10;99.90;;;;;;4966739;28;20054;-91
2022/09/14 09:49:18;;;;;;;0.00;0.00;;;18.10;99.90;;;;;;4999214;28;20509;-89
2022/09/14 09:51:44;;;;;;;0.30;0.00;;;18.10;99.90;;;;;;4998802;28;20046;-90
2022/09/14 09:54:13;;;;;;;0.00;0.00;;;18.10;99.90;;;;;;4966967;28;20183;-89
2022/09/14 09:56:51;;;;;;;0.00;0.00;;;18.30;99.90;;;;;;4998979;28;20404;-89
2022/09/14 09:59:39;;;;;;;0.00;0.00;;;18.30;99.90;;;;;;4999297;28;20049;-89
2022/09/14 10:02:24;;;;;;;0.00;0.00;;;18.40;99.90;;;;;;4982605;28;20054;-89
2022/09/14 10:05:07;;;;;;;0.10;0.10;;;18.50;99.90;;;;;;4982602;28;20136;-89
2022/09/14 10:07:40;;;;;;;0.03;0.03;;;18.50;99.90;;;;;;5016400;28;20102;-90
2022/09/14 10:10:12;;;;;;;0.40;0.20;;;18.40;99.90;;;;;;4998599;28;20046;-89
2022/09/14 10:12:47;;;;;;;0.05;0.05;;;18.40;99.90;;;;;;5016064;28;20045;-90
2022/09/14 10:15:27;;;;;;;0.10;0.10;;;18.40;99.90;;;;;;4982738;28;20057;-90
2022/09/14 10:18:11;;;;;;;0.00;0.00;;;18.40;99.90;;;;;;4982264;28;20054;-90
2022/09/14 10:20:40;;;;;;;0.00;0.00;;;18.30;99.90;;;;;;4998648;28;20081;-90
2022/09/14 10:23:18;;;;;;;0.00;0.00;;;18.30;99.90;;;;;;4982089;28;20157;-90
2022/09/14 10:26:12;;;;;;;0.00;0.00;;;18.30;99.90;;;;;;4998585;28;20045;-90
2022/09/14 10:28:41;;;;;;;0.00;0.00;;;18.30;99.90;;;;;;4976852;28;20129;-90
2022/09/14 10:31:18;;;;;;;0.00;0.00;;;18.30;99.90;;;;;;4981957;28;20055;-90
2022/09/14 10:33:55;;;;;;;0.00;0.00;;;18.40;99.90;;;;;;4998770;28;20050;-90
2022/09/14 10:36:46;;;;;;;0.10;0.10;;;18.40;99.90;;;;;;4998741;28;20050;-90
2022/09/14 10:39:25;;;;;;;0.00;0.00;;;18.50;99.90;;;;;;5015595;28;20155;-90
2022/09/14 10:41:57;;;;;;;0.00;0.00;;;18.50;99.90;;;;;;5003876;28;20050;-89
2022/09/14 10:44:53;;;;;;;0.00;0.00;;;18.60;99.90;;;;;;5008132;28;20465;-90
2022/09/14 10:47:45;;;;;;;0.35;0.35;;;18.60;99.90;;;;;;4985305;28;20491;-90
2022/09/14 10:50:23;;;;;;;0.00;0.00;;;18.60;99.90;;;;;;5005087;28;20053;-91
2022/09/14 10:53:05;;;;;;;0.00;0.00;;;18.60;99.90;;;;;;4997924;28;20050;-90
2022/09/14 10:55:52;;;;;;;0.20;0.20;;;18.60;99.90;;;;;;4981944;28;20107;-90
2022/09/14 10:58:36;;;;;;;0.00;0.00;;;18.70;99.90;;;;;;4998488;28;20054;-91
2022/09/14 11:01:15;;;;;;;0.00;0.00;;;18.90;99.90;;;;;;4997671;28;20056;-91
2022/09/14 11:04:02;;;;;;;0.00;0.00;;;19.20;99.90;;;;;;4981856;28;20080;-90
2022/09/14 11:06:37;;;;;;;0.00;0.00;;;19.50;99.90;;;;;;5015363;28;20049;-90
2022/09/14 11:09:26;;;;;;;0.00;0.00;;;19.60;99.90;;;;;;4981391;28;20053;-91
2022/09/14 11:12:07;;;;;;;0.10;0.10;;;19.90;99.90;;;;;;4999005;28;20500;-91
2022/09/14 11:14:57;;;;;;;0.03;0.03;;;20.20;99.90;;;;;;4984294;28;20045;-90
2022/09/14 11:17:33;;;;;;;0.17;0.00;;;20.40;99.90;;;;;;4997830;28;20484;-91
2022/09/14 11:20:14;;;;;;;2.28;0.20;;;20.60;99.90;;;;;;4997379;28;20132;-91
2022/09/14 11:23:18;;;;;;;1.13;0.10;;;20.70;99.90;;;;;;4981532;28;20081;-91
2022/09/14 11:25:51;;;;;;;0.05;0.05;;;20.80;99.90;;;;;;4981499;28;20176;-91
2022/09/14 11:28:19;;;;;;;0.17;0.17;;;20.70;99.90;;;;;;4981096;28;20124;-91
2022/09/14 11:31:02;;;;;;;0.00;0.00;;;20.60;99.90;;;;;;4997400;28;20045;-91
2022/09/14 11:33:55;;;;;;;0.00;0.00;;;20.40;99.90;;;;;;4981278;28;20053;-92
2022/09/14 11:36:28;;;;;;;0.10;0.10;;;20.30;99.90;;;;;;4981580;28;20141;-91
2022/09/14 11:39:01;;;;;;;0.00;0.00;;;20.30;99.90;;;;;;4997577;28;20050;-91
2022/09/14 11:41:38;;;;;;;0.05;0.00;;;20.20;99.90;;;;;;4981207;28;20077;-91
2022/09/14 11:44:25;;;;;;;0.00;0.00;;;20.30;99.90;;;;;;4980494;28;20084;-91
2022/09/14 11:47:02;;;;;;;0.52;0.08;;;20.50;99.90;;;;;;5014551;28;20472;-90
2022/09/14 11:49:39;;;;;;;;;;;20.70;99.90;;;;;;4997620;28;20112;-92
2022/09/14 11:52:19;;;;;;;0.10;0.10;;;20.90;99.90;;;;;;4980289;28;19929;-91
2022/09/14 11:54:47;;;;;;;0.00;0.00;;;21.10;99.90;;;;;;4997045;28;20500;-91
2022/09/14 11:57:23;;;;;;;0.08;0.08;;;21.20;99.90;;;;;;4996550;28;20099;-92
2022/09/14 11:59:50;;;;;;;;;;;21.20;99.90;;;;;;4981210;28;20093;-91
2022/09/14 12:02:22;;;;;;;0.00;0.00;;;21.00;99.90;;;;;;4980156;28;20388;-91
2022/09/14 12:05:03;;;;;;;0.10;0.10;;;21.00;99.90;;;;;;4996618;28;20507;-91
2022/09/14 12:07:38;;;;;;;0.00;0.00;;;21.10;99.90;;;;;;4980934;28;20050;-91
2022/09/14 12:10:13;;;;;;;0.00;0.00;;;21.10;99.90;;;;;;4980314;28;20050;-91
2022/09/14 12:13:05;;;;;;;0.00;0.00;;;21.10;99.90;;;;;;4980447;28;20053;-92
2022/09/14 12:15:33;;;;;;;0.10;0.10;;;21.00;99.90;;;;;;4995744;28;20404;-91
2022/09/14 12:18:05;;;;;;;0.10;0.10;;;20.90;99.90;;;;;;4996579;28;20507;-91
2022/09/14 12:20:37;;;;;;;0.20;0.00;;;20.80;99.90;;;;;;4996615;28;20100;-91
2022/09/14 12:23:23;;;;;;;0.00;0.00;;;20.70;99.90;;;;;;4996259;28;20049;-91
2022/09/14 12:25:59;;;;;;;0.00;0.00;;;20.70;99.90;;;;;;4996086;28;20082;-91
2022/09/14 12:28:38;;;;;;;1.00;0.10;;;20.60;99.90;;;;;;4979882;28;20112;-91
2022/09/14 12:31:04;;;;;;;0.63;0.35;;;20.60;99.90;;;;;;4996019;28;20388;-91
2022/09/14 12:33:32;;;;;;;0.03;0.03;;;20.60;99.90;;;;;;4980193;28;20065;-91
2022/09/14 12:36:19;;;;;;;0.20;0.20;;;20.60;99.90;;;;;;4980110;28;20050;-91
2022/09/14 12:38:52;;;;;;;0.35;0.10;;;20.60;99.90;;;;;;4996386;28;20046;-91
2022/09/14 12:41:17;;;;;;;0.08;0.08;;;20.40;99.90;;;;;;4995746;28;20072;-91
2022/09/14 12:43:49;;;;;;;0.08;0.08;;;20.30;99.90;;;;;;4995952;28;20079;-91
2022/09/14 12:46:21;;;;;;;0.00;0.00;;;20.30;99.90;;;;;;4995814;28;20132;-91
2022/09/14 12:48:47;;;;;;;0.00;0.00;;;20.20;99.90;;;;;;4979979;28;20128;-92
2022/09/14 12:51:31;;;;;;;0.20;0.20;;;20.10;99.90;;;;;;4995519;28;20492;-90
2022/09/14 12:54:29;;;;;;;1.05;0.10;;;20.20;99.90;;;;;;4979897;28;20195;-91
2022/09/14 12:56:54;;;;;;;;;;;20.20;99.90;;;;;;4980247;28;20042;-90
2022/09/14 12:59:29;;;;;;;0.10;0.10;;;20.20;99.90;;;;;;4979411;28;19921;-91
2022/09/14 13:01:55;;;;;;;0.20;0.03;;;20.20;99.90;;;;;;4996083;28;20392;-91
2022/09/14 13:04:27;;;;;;;0.00;0.00;;;20.20;99.90;;;;;;4979237;28;20045;-91
2022/09/14 13:06:55;;;;;;;0.10;0.10;;;20.40;99.90;;;;;;5013425;28;20071;-90
2022/09/14 13:09:25;;;;;;;0.10;0.10;;;20.60;99.90;;;;;;4995307;28;20042;-90
2022/09/14 13:11:57;;;;;;;0.65;0.00;;;20.90;99.90;;;;;;4997166;28;20045;-91